createdAt,value
2023-03-08T00:01:27.282Z,95542.81
2023-03-08T00:03:58.116Z,95538.13
2023-03-08T00:06:28.225Z,95536.22
2023-03-08T00:08:58.182Z,95538.91
2023-03-08T00:11:28.962Z,95544.34
2023-03-08T00:13:57.536Z,95543.13
2023-03-08T00:16:26.390Z,95538.72
2023-03-08T00:18:54.819Z,95540.31
2023-03-08T00:21:23.461Z,95547.47
2023-03-08T00:23:53.948Z,95547.47
2023-03-08T00:26:22.345Z,95559.56
2023-03-08T00:28:56.156Z,95556.06
2023-03-08T00:31:24.744Z,95552.75
2023-03-08T00:33:57.706Z,95555.75
2023-03-08T00:36:26.454Z,95561.88
2023-03-08T00:38:54.966Z,95552.69
2023-03-08T00:41:23.829Z,95553.50
2023-03-08T00:43:53.569Z,95561.09
2023-03-08T00:46:21.937Z,95559.19
2023-03-08T00:48:50.345Z,95559.66
2023-03-08T00:51:21.632Z,95564.09
2023-03-08T00:53:50.739Z,95553.91
2023-03-08T00:56:19.330Z,95549.53
2023-03-08T00:58:48.262Z,95543.19
2023-03-08T01:01:20.192Z,95542.53
2023-03-08T01:03:50.581Z,95540.13
2023-03-08T01:06:19.283Z,95546.13
2023-03-08T01:08:47.728Z,95541.22
2023-03-08T01:11:21.935Z,95540.44
2023-03-08T01:13:52.023Z,95550.91
2023-03-08T01:16:25.758Z,95538.72
2023-03-08T01:18:54.872Z,95541.22
2023-03-08T01:21:24.992Z,95533.94
2023-03-08T01:23:53.829Z,95536.94
2023-03-08T01:26:24.738Z,95541.75
2023-03-08T01:28:57.637Z,95529.81
2023-03-08T01:31:31.537Z,95539.81
2023-03-08T01:34:01.350Z,95533.94
2023-03-08T01:36:30.236Z,95533.34
2023-03-08T01:39:02.093Z,95531.72
2023-03-08T01:41:33.647Z,95537.91
2023-03-08T01:44:03.201Z,95532.81
2023-03-08T01:46:34.845Z,95525.72
2023-03-08T01:49:37.699Z,95523.66
2023-03-08T01:52:13.762Z,95522.03
2023-03-08T01:54:47.404Z,95512.84
2023-03-08T01:57:22.868Z,95508.38
2023-03-08T01:59:54.876Z,95507.03
2023-03-08T02:02:30.926Z,95509.25
2023-03-08T02:04:59.462Z,95508.44
2023-03-08T02:07:28.932Z,95502.25
2023-03-08T02:09:57.521Z,95501.63
2023-03-08T02:12:27.593Z,95490.06
2023-03-08T02:14:57.904Z,95501.47
2023-03-08T02:17:30.892Z,95496.25
2023-03-08T02:20:12.771Z,95490.84
2023-03-08T02:22:44.073Z,95487.25
2023-03-08T02:25:16.776Z,95496.69
2023-03-08T02:27:45.746Z,95488.03
2023-03-08T02:30:18.310Z,95490.09
2023-03-08T02:32:47.035Z,95489.06
2023-03-08T02:35:15.387Z,95481.00
2023-03-08T02:37:45.162Z,95484.41
2023-03-08T02:40:14.672Z,95483.09
2023-03-08T02:42:43.014Z,95483.09
2023-03-08T02:45:13.416Z,95469.63
2023-03-08T02:47:42.375Z,95461.66
2023-03-08T02:50:12.300Z,95460.09
2023-03-08T02:52:40.690Z,95471.84
2023-03-08T02:55:11.621Z,95470.03
2023-03-08T02:57:40.437Z,95471.16
2023-03-08T03:00:12.232Z,95479.03
2023-03-08T03:02:40.727Z,95486.41
2023-03-08T03:05:12.063Z,95483.25
2023-03-08T03:07:44.533Z,95473.94
2023-03-08T03:10:21.711Z,95479.28
2023-03-08T03:12:50.202Z,95484.84
2023-03-08T03:15:22.819Z,95480.34
2023-03-08T03:17:55.333Z,95480.38
2023-03-08T03:20:23.836Z,95480.56
2023-03-08T03:22:52.215Z,95487.28
2023-03-08T03:25:26.250Z,95485.94
2023-03-08T03:27:56.354Z,95492.53
2023-03-08T03:30:26.684Z,95493.00
2023-03-08T03:32:55.318Z,95483.50
2023-03-08T03:35:28.746Z,95486.22
2023-03-08T03:37:57.777Z,95484.19
2023-03-08T03:40:28.505Z,95487.22
2023-03-08T03:43:01.711Z,95488.91
2023-03-08T03:45:30.700Z,95485.53
2023-03-08T03:47:59.067Z,95474.16
2023-03-08T03:50:29.008Z,95480.88
2023-03-08T03:53:05.605Z,95480.09
2023-03-08T03:55:36.050Z,95478.22
2023-03-08T03:58:05.460Z,95477.78
2023-03-08T04:00:34.700Z,95476.06
2023-03-08T04:03:13.401Z,95476.13
2023-03-08T04:05:41.861Z,95476.13
2023-03-08T04:08:10.241Z,95476.06
2023-03-08T04:10:43.236Z,95469.94
2023-03-08T04:13:13.285Z,95473.16
2023-03-08T04:15:43.690Z,95460.47
2023-03-08T04:18:14.387Z,95467.28
2023-03-08T04:20:46.316Z,95467.63
2023-03-08T04:23:15.910Z,95468.19
2023-03-08T04:25:48.658Z,95470.59
2023-03-08T04:28:18.278Z,95464.53
2023-03-08T04:30:46.945Z,95460.97
2023-03-08T04:33:19.365Z,95462.19
2023-03-08T04:35:50.575Z,95455.13
2023-03-08T04:38:22.420Z,95451.63
2023-03-08T04:41:05.575Z,95449.56
2023-03-08T04:43:57.382Z,95443.69
2023-03-08T04:46:34.576Z,95438.81
2023-03-08T04:49:04.070Z,95442.50
2023-03-08T04:51:42.556Z,95437.22
2023-03-08T04:54:12.402Z,95430.16
2023-03-08T04:56:48.460Z,95423.47
2023-03-08T04:59:17.651Z,95418.38
2023-03-08T05:01:46.133Z,95410.72
2023-03-08T05:04:14.962Z,95405.84
2023-03-08T05:06:43.712Z,95400.75
2023-03-08T05:09:15.888Z,95400.34
2023-03-08T05:11:47.498Z,95400.44
2023-03-08T05:14:17.206Z,95402.44
2023-03-08T05:16:46.212Z,95399.75
2023-03-08T05:19:15.502Z,95396.06
2023-03-08T05:21:49.403Z,95391.28
2023-03-08T05:24:18.376Z,95392.06
2023-03-08T05:26:48.462Z,95383.91
2023-03-08T05:29:19.402Z,95372.03
2023-03-08T05:31:48.016Z,95378.09
2023-03-08T05:34:17.036Z,95364.25
2023-03-08T05:36:48.449Z,95356.22
2023-03-08T05:39:17.006Z,95348.44
2023-03-08T05:41:59.568Z,95363.34
2023-03-08T05:44:33.120Z,95360.38
2023-03-08T05:47:01.957Z,95362.66
2023-03-08T05:49:30.753Z,95363.97
2023-03-08T05:51:59.995Z,95367.16
2023-03-08T05:54:29.889Z,95363.38
2023-03-08T05:57:04.799Z,95381.00
2023-03-08T05:59:33.338Z,95385.28
2023-03-08T06:02:04.874Z,95381.41
2023-03-08T06:04:49.331Z,95382.09
2023-03-08T06:07:21.168Z,95389.56
2023-03-08T06:09:55.895Z,95387.09
2023-03-08T06:12:26.742Z,95387.00
2023-03-08T06:14:59.125Z,95400.25
2023-03-08T06:17:30.574Z,95400.75
2023-03-08T06:20:01.451Z,95402.44
2023-03-08T06:22:31.724Z,95404.63
2023-03-08T06:25:01.418Z,95396.25
2023-03-08T06:27:36.444Z,95386.03
2023-03-08T06:30:12.505Z,95392.78
2023-03-08T06:32:41.374Z,95392.97
2023-03-08T06:35:10.642Z,95382.50
2023-03-08T06:37:45.332Z,95381.59
2023-03-08T06:40:14.543Z,95384.00
2023-03-08T06:42:44.859Z,95386.56
2023-03-08T06:45:15.928Z,95382.47
2023-03-08T06:47:44.183Z,95380.97
2023-03-08T06:50:14.327Z,95378.34
2023-03-08T06:52:46.194Z,95384.06
2023-03-08T06:55:16.699Z,95384.59
2023-03-08T06:57:47.020Z,95381.28
2023-03-08T07:00:16.733Z,95384.47
2023-03-08T07:02:45.392Z,95383.34
2023-03-08T07:05:14.464Z,95384.22
2023-03-08T07:07:43.360Z,95376.47
2023-03-08T07:10:15.972Z,95387.16
2023-03-08T07:12:48.469Z,95391.94
2023-03-08T07:15:19.473Z,95386.88
2023-03-08T07:17:49.485Z,95388.22
2023-03-08T07:20:22.281Z,95386.31
2023-03-08T07:22:51.282Z,95378.34
2023-03-08T07:25:22.527Z,95381.22
2023-03-08T07:27:52.308Z,95379.69
2023-03-08T07:30:21.513Z,95378.47
2023-03-08T07:32:49.900Z,95380.09
2023-03-08T07:35:18.610Z,95383.97
2023-03-08T07:37:48.732Z,95372.72
2023-03-08T07:40:18.922Z,95370.66
2023-03-08T07:42:47.290Z,95367.19
2023-03-08T07:45:31.974Z,95352.28
2023-03-08T07:48:00.360Z,95344.50
2023-03-08T07:50:28.856Z,95334.34
2023-03-08T07:52:57.108Z,95333.88
2023-03-08T07:55:25.954Z,95328.66
2023-03-08T07:57:54.353Z,95326.44
2023-03-08T08:00:23.553Z,95324.22
2023-03-08T08:02:54.381Z,95328.66
2023-03-08T08:05:22.954Z,95318.53
2023-03-08T08:07:51.489Z,95322.03
2023-03-08T08:10:20.462Z,95325.66
2023-03-08T08:12:49.025Z,95320.91
2023-03-08T08:15:18.002Z,95320.28
2023-03-08T08:17:46.361Z,95317.09
2023-03-08T08:20:16.078Z,95322.00
2023-03-08T08:22:44.827Z,95314.22
2023-03-08T08:25:13.145Z,95316.56
2023-03-08T08:27:41.486Z,95319.69
2023-03-08T08:30:14.001Z,95313.19
2023-03-08T08:32:42.790Z,95306.31
2023-03-08T08:35:12.058Z,95299.41
2023-03-08T08:37:42.655Z,95291.41
2023-03-08T08:40:13.022Z,95286.56
2023-03-08T08:42:41.489Z,95289.09
2023-03-08T08:45:11.653Z,95296.25
2023-03-08T08:47:39.967Z,95283.56
2023-03-08T08:50:09.150Z,95277.22
2023-03-08T08:52:37.458Z,95267.53
2023-03-08T08:55:07.882Z,95267.53
2023-03-08T08:57:40.171Z,95258.47
2023-03-08T09:00:11.809Z,95256.56
2023-03-08T09:02:40.203Z,95255.47
2023-03-08T09:05:09.766Z,95248.19
2023-03-08T09:07:39.259Z,95234.00
2023-03-08T09:10:11.550Z,95236.25
2023-03-08T09:12:40.163Z,95231.78
2023-03-08T09:15:10.221Z,95218.13
2023-03-08T09:17:39.430Z,95221.78
2023-03-08T09:20:13.564Z,95215.44
2023-03-08T09:22:42.764Z,95207.81
2023-03-08T09:25:14.009Z,95205.44
2023-03-08T09:27:43.388Z,95205.56
2023-03-08T09:30:19.288Z,95189.88
2023-03-08T09:32:47.917Z,95187.16
2023-03-08T09:35:16.942Z,95184.16
2023-03-08T09:37:45.402Z,95177.13
2023-03-08T09:40:24.799Z,95176.81
2023-03-08T09:43:01.081Z,95172.25
2023-03-08T09:45:30.778Z,95162.25
2023-03-08T09:48:11.104Z,95154.63
2023-03-08T09:50:48.480Z,95145.28
2023-03-08T09:53:28.625Z,95131.31
2023-03-08T09:56:05.322Z,95125.13
2023-03-08T09:58:41.697Z,95137.81
2023-03-08T10:01:33.776Z,95128.63
2023-03-08T10:04:35.660Z,95121.78
2023-03-08T10:07:25.233Z,95113.56
2023-03-08T10:10:14.169Z,95101.34
2023-03-08T10:13:04.852Z,95096.44
2023-03-08T10:15:40.808Z,95103.41
2023-03-08T10:18:24.384Z,95120.69
2023-03-08T10:20:54.124Z,95119.56
2023-03-08T10:23:26.005Z,95128.78
2023-03-08T10:25:54.442Z,95118.47
2023-03-08T10:28:27.638Z,95118.00
2023-03-08T10:30:59.125Z,95107.22
2023-03-08T10:33:34.441Z,95112.28
2023-03-08T10:36:12.612Z,95114.19
2023-03-08T10:38:41.400Z,95104.53
2023-03-08T10:41:17.166Z,95106.25
2023-03-08T10:43:50.901Z,95103.56
2023-03-08T10:46:22.786Z,95100.69
2023-03-08T10:48:52.027Z,95101.81
2023-03-08T10:51:23.579Z,95097.06
2023-03-08T10:54:00.110Z,95095.94
2023-03-08T10:56:41.029Z,95081.84
2023-03-08T10:59:27.603Z,95082.63
2023-03-08T11:02:00.281Z,95078.66
2023-03-08T11:04:31.983Z,95094.03
2023-03-08T11:07:11.780Z,95076.91
2023-03-08T11:09:40.379Z,95049.75
2023-03-08T11:12:25.518Z,95072.91
2023-03-08T11:14:58.570Z,95064.63
2023-03-08T11:17:39.229Z,95048.91
2023-03-08T11:20:24.964Z,95043.97
2023-03-08T11:23:15.579Z,95039.66
2023-03-08T11:25:48.694Z,95053.31
2023-03-08T11:28:45.310Z,95043.16
2023-03-08T11:31:32.704Z,95037.59
2023-03-08T11:34:52.148Z,95027.59
2023-03-08T11:37:33.593Z,95027.41
2023-03-08T11:40:15.726Z,95022.78
2023-03-08T11:43:00.282Z,95031.66
2023-03-08T11:45:37.022Z,95018.94
2023-03-08T11:48:56.049Z,95005.41
2023-03-08T11:51:34.054Z,94999.34
2023-03-08T11:54:19.656Z,94992.13
2023-03-08T11:56:53.747Z,94984.88
2023-03-08T11:59:32.517Z,94985.81
2023-03-08T12:02:10.908Z,94988.34
2023-03-08T12:04:47.066Z,94975.28
2023-03-08T12:07:25.948Z,94978.25
2023-03-08T12:10:02.397Z,94975.69
2023-03-08T12:12:38.433Z,94961.72
2023-03-08T12:15:25.933Z,94956.31
2023-03-08T12:18:00.292Z,94958.72
2023-03-08T12:20:38.509Z,94961.88
2023-03-08T12:23:22.303Z,94960.84
2023-03-08T12:25:57.384Z,94953.31
2023-03-08T12:28:33.197Z,94946.06
2023-03-08T12:31:29.614Z,94943.28
2023-03-08T12:34:00.955Z,94934.75
2023-03-08T12:36:42.405Z,94927.56
2023-03-08T12:39:26.742Z,94923.94
2023-03-08T12:42:14.341Z,94923.72
2023-03-08T12:44:44.092Z,94918.53
2023-03-08T12:47:24.096Z,94913.13
2023-03-08T12:49:57.376Z,94902.66
2023-03-08T12:52:35.019Z,94896.81
2023-03-08T12:55:11.032Z,94908.88
2023-03-08T12:57:49.026Z,94908.66
2023-03-08T13:00:31.932Z,94900.22
2023-03-08T13:03:04.507Z,94906.88
2023-03-08T13:05:37.887Z,94915.91
2023-03-08T13:08:28.452Z,94908.25
2023-03-08T13:11:11.864Z,94901.94
2023-03-08T13:13:50.598Z,94912.13
2023-03-08T13:16:33.222Z,94919.66
2023-03-08T13:19:22.211Z,94908.25
2023-03-08T13:22:00.128Z,94908.59
2023-03-08T13:24:45.527Z,94910.31
2023-03-08T13:27:40.234Z,94921.47
2023-03-08T13:30:24.209Z,94900.81
2023-03-08T13:32:53.483Z,94905.66
2023-03-08T13:35:22.755Z,94890.19
2023-03-08T13:37:56.229Z,94895.84
2023-03-08T13:40:28.206Z,94908.13
2023-03-08T13:42:58.762Z,94909.81
2023-03-08T13:45:28.154Z,94898.50
2023-03-08T13:48:03.931Z,94899.19
2023-03-08T13:50:35.306Z,94909.44
2023-03-08T13:53:10.443Z,94914.09
2023-03-08T13:55:51.710Z,94903.69
2023-03-08T13:58:32.210Z,94903.69
2023-03-08T14:01:12.278Z,94907.88
2023-03-08T14:03:43.343Z,94903.00
2023-03-08T14:06:22.329Z,94904.00
2023-03-08T14:08:54.407Z,94898.69
2023-03-08T14:11:30.317Z,94895.81
2023-03-08T14:14:01.868Z,94897.06
2023-03-08T14:16:34.819Z,94897.59
2023-03-08T14:19:13.001Z,94899.63
2023-03-08T14:21:51.490Z,94890.91
2023-03-08T14:24:24.257Z,94885.81
2023-03-08T14:27:01.511Z,94877.16
2023-03-08T14:29:32.698Z,94877.94
2023-03-08T14:32:07.210Z,94870.81
2023-03-08T14:34:39.583Z,94873.69
2023-03-08T14:37:21.116Z,94872.13
2023-03-08T14:39:52.966Z,94870.75
2023-03-08T14:42:27.948Z,94863.22
2023-03-08T14:45:00.443Z,94859.34
2023-03-08T14:47:31.659Z,94856.09
2023-03-08T14:50:04.780Z,94854.50
2023-03-08T14:52:36.638Z,94848.38
2023-03-08T14:55:21.369Z,94837.53
2023-03-08T14:57:53.525Z,94843.41
2023-03-08T15:00:23.922Z,94838.06
2023-03-08T15:02:52.165Z,94822.84
2023-03-08T15:05:29.149Z,94831.75
2023-03-08T15:08:00.500Z,94832.19
2023-03-08T15:10:33.767Z,94826.41
2023-03-08T15:13:03.622Z,94820.72
2023-03-08T15:15:32.105Z,94816.13
2023-03-08T15:18:00.780Z,94803.16
2023-03-08T15:20:29.186Z,94803.69
2023-03-08T15:23:01.827Z,94802.81
2023-03-08T15:25:32.906Z,94807.25
2023-03-08T15:28:02.689Z,94807.69
2023-03-08T15:30:33.594Z,94798.63
2023-03-08T15:33:02.676Z,94800.19
2023-03-08T15:35:31.814Z,94797.22
2023-03-08T15:38:00.210Z,94806.06
2023-03-08T15:40:31.708Z,94804.41
2023-03-08T15:43:01.381Z,94791.38
2023-03-08T15:45:31.994Z,94800.78
2023-03-08T15:48:03.784Z,94782.59
2023-03-08T15:50:33.509Z,94775.94
2023-03-08T15:53:02.362Z,94771.91
2023-03-08T15:55:32.064Z,94773.50
2023-03-08T15:58:00.916Z,94774.81
2023-03-08T16:00:30.813Z,94772.31
2023-03-08T16:02:59.694Z,94772.22
2023-03-08T16:05:29.201Z,94769.19
2023-03-08T16:08:00.187Z,94775.53
2023-03-08T16:10:31.088Z,94768.97
2023-03-08T16:12:59.493Z,94765.19
2023-03-08T16:15:30.160Z,94767.69
2023-03-08T16:17:58.710Z,94764.78
2023-03-08T16:20:27.201Z,94755.97
2023-03-08T16:22:56.061Z,94746.16
2023-03-08T16:25:24.705Z,94743.00
2023-03-08T16:27:53.437Z,94743.75
2023-03-08T16:30:22.388Z,94743.75
2023-03-08T16:32:55.048Z,94743.91
2023-03-08T16:35:23.492Z,94731.19
2023-03-08T16:37:54.235Z,94737.53
2023-03-08T16:40:22.634Z,94743.44
2023-03-08T16:42:53.009Z,94741.72
2023-03-08T16:45:21.449Z,94732.44
2023-03-08T16:47:49.755Z,94736.59
2023-03-08T16:50:19.749Z,94736.59
2023-03-08T16:52:48.447Z,94735.78
2023-03-08T16:55:16.929Z,94738.25
2023-03-08T16:57:45.241Z,94739.13
2023-03-08T17:00:15.585Z,94736.13
2023-03-08T17:02:45.471Z,94743.78
2023-03-08T17:05:13.939Z,94734.63
2023-03-08T17:07:43.694Z,94746.31
2023-03-08T17:10:13.325Z,94745.91
2023-03-08T17:12:42.286Z,94733.22
2023-03-08T17:15:12.058Z,94737.81
2023-03-08T17:17:41.579Z,94734.59
2023-03-08T17:20:13.981Z,94738.19
2023-03-08T17:22:44.074Z,94740.88
2023-03-08T17:25:12.723Z,94745.06
2023-03-08T17:27:41.445Z,94737.44
2023-03-08T17:30:14.182Z,94745.16
2023-03-08T17:32:42.546Z,94748.81
2023-03-08T17:35:11.654Z,94753.59
2023-03-08T17:37:41.869Z,94758.84
2023-03-08T17:40:14.226Z,94750.91
2023-03-08T17:42:42.708Z,94738.09
2023-03-08T17:45:12.080Z,94753.56
2023-03-08T17:47:40.714Z,94752.75
2023-03-08T17:50:12.999Z,94756.78
2023-03-08T17:52:41.861Z,94751.34
2023-03-08T17:55:12.807Z,94758.59
2023-03-08T17:57:41.143Z,94753.91
2023-03-08T18:00:12.371Z,94756.88
2023-03-08T18:02:40.767Z,94755.66
2023-03-08T18:05:11.157Z,94771.34
2023-03-08T18:07:41.812Z,94762.56
2023-03-08T18:10:13.486Z,94778.25
2023-03-08T18:12:41.978Z,94773.69
2023-03-08T18:15:12.823Z,94785.72
2023-03-08T18:17:41.556Z,94785.38
2023-03-08T18:20:12.513Z,94786.22
2023-03-08T18:22:42.313Z,94792.94
2023-03-08T18:25:13.426Z,94790.00
2023-03-08T18:27:42.030Z,94790.13
2023-03-08T18:30:12.978Z,94789.94
2023-03-08T18:32:41.852Z,94787.84
2023-03-08T18:35:13.378Z,94779.34
2023-03-08T18:37:41.746Z,94783.53
2023-03-08T18:40:13.291Z,94787.38
2023-03-08T18:42:43.249Z,94783.91
2023-03-08T18:45:13.441Z,94804.66
2023-03-08T18:47:42.444Z,94780.59
2023-03-08T18:50:13.140Z,94809.53
2023-03-08T18:52:41.766Z,94773.22
2023-03-08T18:55:12.837Z,94770.25
2023-03-08T18:57:41.590Z,94766.28
2023-03-08T19:00:12.112Z,94767.19
2023-03-08T19:02:40.883Z,94782.75
2023-03-08T19:05:10.450Z,94780.75
2023-03-08T19:07:41.034Z,94775.59
2023-03-08T19:10:14.754Z,94770.91
2023-03-08T19:12:44.694Z,94775.66
2023-03-08T19:15:13.658Z,94792.00
2023-03-08T19:17:41.965Z,94782.84
2023-03-08T19:20:12.655Z,94806.25
2023-03-08T19:22:43.356Z,94791.19
2023-03-08T19:25:15.123Z,94785.81
2023-03-08T19:27:43.734Z,94791.84
2023-03-08T19:30:13.469Z,94784.00
2023-03-08T19:32:42.822Z,94789.47
2023-03-08T19:35:14.743Z,94790.22
2023-03-08T19:37:43.087Z,94782.44
2023-03-08T19:40:14.456Z,94781.19
2023-03-08T19:42:43.380Z,94797.00
2023-03-08T19:45:14.521Z,94811.75
2023-03-08T19:47:42.985Z,94812.84
2023-03-08T19:50:13.291Z,94817.59
2023-03-08T19:52:41.672Z,94804.03
2023-03-08T19:55:12.301Z,94801.66
2023-03-08T19:57:42.054Z,94812.59
2023-03-08T20:00:14.419Z,94802.78
2023-03-08T20:02:45.738Z,94801.19
2023-03-08T20:05:14.716Z,94792.59
2023-03-08T20:07:43.581Z,94797.59
2023-03-08T20:10:21.934Z,94788.25
2023-03-08T20:12:52.664Z,94782.84
2023-03-08T20:15:21.000Z,94786.75
2023-03-08T20:17:49.770Z,94788.59
2023-03-08T20:20:18.866Z,94794.31
2023-03-08T20:22:47.514Z,94789.28
2023-03-08T20:25:17.830Z,94795.09
2023-03-08T20:27:46.778Z,94802.56
2023-03-08T20:30:15.883Z,94797.97
2023-03-08T20:32:44.551Z,94807.69
2023-03-08T20:35:15.137Z,94800.50
2023-03-08T20:37:44.085Z,94795.59
2023-03-08T20:40:20.876Z,94800.19
2023-03-08T20:42:49.244Z,94785.78
2023-03-08T20:45:17.671Z,94794.59
2023-03-08T20:47:46.632Z,94783.91
2023-03-08T20:50:15.350Z,94791.13
2023-03-08T20:52:44.162Z,94792.53
2023-03-08T20:55:12.594Z,94786.78
2023-03-08T20:57:42.370Z,94787.94
2023-03-08T21:00:13.463Z,94798.09
2023-03-08T21:02:41.881Z,94797.06
2023-03-08T21:05:11.172Z,94782.59
2023-03-08T21:07:39.693Z,94791.06
2023-03-08T21:10:09.102Z,94791.44
2023-03-08T21:12:39.048Z,94787.81
2023-03-08T21:15:10.703Z,94781.03
2023-03-08T21:17:40.377Z,94772.41
2023-03-08T21:20:11.434Z,94769.19
2023-03-08T21:22:40.301Z,94774.22
2023-03-08T21:25:09.642Z,94769.16
2023-03-08T21:27:38.652Z,94771.81
2023-03-08T21:30:11.536Z,94759.34
2023-03-08T21:32:39.921Z,94755.44
2023-03-08T21:35:10.174Z,94752.56
2023-03-08T21:37:38.644Z,94734.63
2023-03-08T21:40:08.869Z,94741.16
2023-03-08T21:42:37.202Z,94738.00
2023-03-08T21:45:06.846Z,94730.28
2023-03-08T21:47:36.758Z,94726.47
2023-03-08T21:50:05.655Z,94727.25
2023-03-08T21:52:33.952Z,94726.38
2023-03-08T21:55:02.293Z,94722.53
2023-03-08T21:57:33.944Z,94723.38
2023-03-08T22:00:02.333Z,94724.81
2023-03-08T22:02:45.023Z,94727.09
2023-03-08T22:05:15.137Z,94725.91
2023-03-08T22:07:44.170Z,94729.25
2023-03-08T22:10:14.766Z,94731.28
2023-03-08T22:12:47.336Z,94727.03
2023-03-08T22:15:17.313Z,94739.25
2023-03-08T22:17:47.277Z,94734.19
2023-03-08T22:20:15.917Z,94745.44
2023-03-08T22:22:45.609Z,94756.34
2023-03-08T22:25:14.013Z,94743.91
2023-03-08T22:27:42.930Z,94754.44
2023-03-08T22:30:13.467Z,94747.13
2023-03-08T22:32:42.507Z,94744.63
2023-03-08T22:35:14.185Z,94744.94
2023-03-08T22:37:45.828Z,94748.81
2023-03-08T22:40:16.951Z,94757.06
2023-03-08T22:42:48.581Z,94753.91
2023-03-08T22:45:17.457Z,94756.97
2023-03-08T22:47:46.567Z,94746.09
2023-03-08T22:50:16.214Z,94742.22
2023-03-08T22:52:45.327Z,94750.81
2023-03-08T22:55:14.211Z,94746.09
2023-03-08T22:57:42.664Z,94744.47
2023-03-08T23:00:15.503Z,94752.16
2023-03-08T23:02:46.103Z,94758.47
2023-03-08T23:05:19.731Z,94749.06
2023-03-08T23:07:48.424Z,94752.16
2023-03-08T23:10:18.172Z,94745.16
2023-03-08T23:12:47.631Z,94750.97
2023-03-08T23:15:16.174Z,94755.25
2023-03-08T23:17:44.696Z,94750.53
2023-03-08T23:20:19.890Z,94749.06
2023-03-08T23:22:48.942Z,94754.56
2023-03-08T23:25:18.124Z,94755.00
2023-03-08T23:27:47.046Z,94746.84
2023-03-08T23:30:18.517Z,94756.56
2023-03-08T23:32:46.863Z,94760.09
2023-03-08T23:35:16.671Z,94763.59
2023-03-08T23:37:46.932Z,94758.56
2023-03-08T23:40:16.237Z,94766.31
2023-03-08T23:42:44.476Z,94753.06
2023-03-08T23:45:13.913Z,94754.94
2023-03-08T23:47:42.432Z,94745.69
2023-03-08T23:50:12.554Z,94755.13
2023-03-08T23:52:42.159Z,94744.53
2023-03-08T23:55:16.133Z,94741.88
2023-03-08T23:57:44.425Z,94729.75
